Ragland, Alabama
Current Conditions -  °F | °C
As of 4:15 AM on Saturday 20 Dec 2014 (Local Time) from KASN Reporting Station
Moderate Rain Moderate Rain  
Wind Chill: 42°   Ceiling: 1600
Heat Index: 42°   Visibility: 7mi
Dew Point: 39°   Wind: 0mph
Humidity: 90%   Direction: NA
Pressure: 30.18"   Gusts: NA
Location:  33.74°N, 86.16°W
Report Text: KASN 201015Z AUTO 00000KT 7SM RA BKN016 OVC041 06/04 A3018 RMK AO2 T00560041
Loading
Personal Weather Stations






























Interactive Weather Map New forecast layout! Learn more

10-Day Weather Forecast

Advertisements
Track Severe Weather on mobile